Aviation Digital Data Service (ADDS)

Output produced by METARs form (0631 UTC 19 August 2019)
found at http://www.aviationweather.gov/metar/data/
 
METAR text: ZWWW 190600Z 34003MPS 280V030 CAVOK 25/08 Q1020 NOSIG
Conditions at: ZWWW (URUM-QI/DIWOPU , CN) observed 0600 UTC 19 August 2019
Temperature: 25.0°C (77°F)
Dewpoint: 8.0°C (46°F) [RH = 34%]
Pressure (altimeter): 30.12 inches Hg (1020.0 mb)
Winds: from the NNW (340 degrees) at 7 MPH (6 knots; 3.1 m/s)
Visibility: 6 or more miles (10+ km)
Ceiling: ceiling and visibility are OK
Clouds: unknown
Weather: no significant weather observed at this time

METAR text: ZWWW 190530Z 01003MPS 310V100 CAVOK 25/08 Q1020 NOSIG
Conditions at: ZWWW (URUM-QI/DIWOPU , CN) observed 0530 UTC 19 August 2019
Temperature: 25.0°C (77°F)
Dewpoint: 8.0°C (46°F) [RH = 34%]
Pressure (altimeter): 30.12 inches Hg (1020.0 mb)
Winds: from the N (10 degrees) at 7 MPH (6 knots; 3.1 m/s)
Visibility: 6 or more miles (10+ km)
Ceiling: ceiling and visibility are OK
Clouds: unknown
Weather: no significant weather observed at this time

METAR text: ZWWW 190500Z VRB03MPS CAVOK 25/07 Q1020 NOSIG
Conditions at: ZWWW (URUM-QI/DIWOPU , CN) observed 0500 UTC 19 August 2019
Temperature: 25.0°C (77°F)
Dewpoint: 7.0°C (45°F) [RH = 32%]
Pressure (altimeter): 30.12 inches Hg (1020.0 mb)
Winds: variable direction winds at 7 MPH (6 knots; 3.1 m/s)
Visibility: 6 or more miles (10+ km)
Ceiling: ceiling and visibility are OK
Clouds: unknown
Weather: no significant weather observed at this time

METAR text: ZWWW 190430Z 02003MPS 340V040 CAVOK 25/07 Q1020 NOSIG
Conditions at: ZWWW (URUM-QI/DIWOPU , CN) observed 0430 UTC 19 August 2019
Temperature: 25.0°C (77°F)
Dewpoint: 7.0°C (45°F) [RH = 32%]
Pressure (altimeter): 30.12 inches Hg (1020.0 mb)
Winds: from the NNE (20 degrees) at 7 MPH (6 knots; 3.1 m/s)
Visibility: 6 or more miles (10+ km)
Ceiling: ceiling and visibility are OK
Clouds: unknown
Weather: no significant weather observed at this time

METAR text: ZWWW 190400Z 33003MPS 290V360 CAVOK 23/09 Q1021 NOSIG
Conditions at: ZWWW (URUM-QI/DIWOPU , CN) observed 0400 UTC 19 August 2019
Temperature: 23.0°C (73°F)
Dewpoint: 9.0°C (48°F) [RH = 41%]
Pressure (altimeter): 30.15 inches Hg (1021.0 mb)
Winds: from the NNW (330 degrees) at 7 MPH (6 knots; 3.1 m/s)
Visibility: 6 or more miles (10+ km)
Ceiling: ceiling and visibility are OK
Clouds: unknown
Weather: no significant weather observed at this time

METAR text: ZWWW 190330Z 32003MPS 260V010 CAVOK 23/08 Q1021 NOSIG
Conditions at: ZWWW (URUM-QI/DIWOPU , CN) observed 0330 UTC 19 August 2019
Temperature: 23.0°C (73°F)
Dewpoint: 8.0°C (46°F) [RH = 38%]
Pressure (altimeter): 30.15 inches Hg (1021.0 mb)
Winds: from the NW (320 degrees) at 7 MPH (6 knots; 3.1 m/s)
Visibility: 6 or more miles (10+ km)
Ceiling: ceiling and visibility are OK
Clouds: unknown
Weather: no significant weather observed at this time

METAR text: ZWWW 190300Z 30003MPS 270V350 CAVOK 23/08 Q1021 NOSIG
Conditions at: ZWWW (URUM-QI/DIWOPU , CN) observed 0300 UTC 19 August 2019
Temperature: 23.0°C (73°F)
Dewpoint: 8.0°C (46°F) [RH = 38%]
Pressure (altimeter): 30.15 inches Hg (1021.0 mb)
Winds: from the WNW (300 degrees) at 7 MPH (6 knots; 3.1 m/s)
Visibility: 6 or more miles (10+ km)
Ceiling: ceiling and visibility are OK
Clouds: unknown
Weather: no significant weather observed at this time

METAR text: ZWWW 190230Z 32002MPS 280V350 CAVOK 22/08 Q1021 NOSIG
Conditions at: ZWWW (URUM-QI/DIWOPU , CN) observed 0230 UTC 19 August 2019
Temperature: 22.0°C (72°F)
Dewpoint: 8.0°C (46°F) [RH = 41%]
Pressure (altimeter): 30.15 inches Hg (1021.0 mb)
Winds: from the NW (320 degrees) at 5 MPH (4 knots; 2.1 m/s)
Visibility: 6 or more miles (10+ km)
Ceiling: ceiling and visibility are OK
Clouds: unknown
Weather: no significant weather observed at this time

METAR text: ZWWW 190200Z 32003MPS 290V350 CAVOK 22/08 Q1021 NOSIG
Conditions at: ZWWW (URUM-QI/DIWOPU , CN) observed 0200 UTC 19 August 2019
Temperature: 22.0°C (72°F)
Dewpoint: 8.0°C (46°F) [RH = 41%]
Pressure (altimeter): 30.15 inches Hg (1021.0 mb)
Winds: from the NW (320 degrees) at 7 MPH (6 knots; 3.1 m/s)
Visibility: 6 or more miles (10+ km)
Ceiling: ceiling and visibility are OK
Clouds: unknown
Weather: no significant weather observed at this time

METAR text: ZWWW 190130Z 01002MPS CAVOK 21/07 Q1021 NOSIG
Conditions at: ZWWW (URUM-QI/DIWOPU , CN) observed 0130 UTC 19 August 2019
Temperature: 21.0°C (70°F)
Dewpoint: 7.0°C (45°F) [RH = 40%]
Pressure (altimeter): 30.15 inches Hg (1021.0 mb)
Winds: from the N (10 degrees) at 5 MPH (4 knots; 2.1 m/s)
Visibility: 6 or more miles (10+ km)
Ceiling: ceiling and visibility are OK
Clouds: unknown
Weather: no significant weather observed at this time

METAR text: ZWWW 190100Z VRB01MPS CAVOK 21/08 Q1021 NOSIG
Conditions at: ZWWW (URUM-QI/DIWOPU , CN) observed 0100 UTC 19 August 2019
Temperature: 21.0°C (70°F)
Dewpoint: 8.0°C (46°F) [RH = 43%]
Pressure (altimeter): 30.15 inches Hg (1021.0 mb)
Winds: variable direction winds at 2 MPH (2 knots; 1.0 m/s)
Visibility: 6 or more miles (10+ km)
Ceiling: ceiling and visibility are OK
Clouds: unknown
Weather: no significant weather observed at this time

METAR text: ZWWW 190030Z VRB01MPS CAVOK 20/08 Q1020 NOSIG
Conditions at: ZWWW (URUM-QI/DIWOPU , CN) observed 0030 UTC 19 August 2019
Temperature: 20.0°C (68°F)
Dewpoint: 8.0°C (46°F) [RH = 46%]
Pressure (altimeter): 30.12 inches Hg (1020.0 mb)
Winds: variable direction winds at 2 MPH (2 knots; 1.0 m/s)
Visibility: 6 or more miles (10+ km)
Ceiling: ceiling and visibility are OK
Clouds: unknown
Weather: no significant weather observed at this time

METAR text: ZWWW 190000Z 18002MPS 130V230 CAVOK 20/07 Q1020 NOSIG
Conditions at: ZWWW (URUM-QI/DIWOPU , CN) observed 0000 UTC 19 August 2019
Temperature: 20.0°C (68°F)
Dewpoint: 7.0°C (45°F) [RH = 43%]
Pressure (altimeter): 30.12 inches Hg (1020.0 mb)
Winds: from the S (180 degrees) at 5 MPH (4 knots; 2.1 m/s)
Visibility: 6 or more miles (10+ km)
Ceiling: ceiling and visibility are OK
Clouds: unknown
Weather: no significant weather observed at this time

METAR text: ZWWW 182330Z 17002MPS 150V220 CAVOK 19/07 Q1020 NOSIG
Conditions at: ZWWW (URUM-QI/DIWOPU , CN) observed 2330 UTC 18 August 2019
Temperature: 19.0°C (66°F)
Dewpoint: 7.0°C (45°F) [RH = 46%]
Pressure (altimeter): 30.12 inches Hg (1020.0 mb)
Winds: from the S (170 degrees) at 5 MPH (4 knots; 2.1 m/s)
Visibility: 6 or more miles (10+ km)
Ceiling: ceiling and visibility are OK
Clouds: unknown
Weather: no significant weather observed at this time

METAR text: ZWWW 182300Z 16003MPS 140V200 CAVOK 19/07 Q1020 NOSIG
Conditions at: ZWWW (URUM-QI/DIWOPU , CN) observed 2300 UTC 18 August 2019
Temperature: 19.0°C (66°F)
Dewpoint: 7.0°C (45°F) [RH = 46%]
Pressure (altimeter): 30.12 inches Hg (1020.0 mb)
Winds: from the SSE (160 degrees) at 7 MPH (6 knots; 3.1 m/s)
Visibility: 6 or more miles (10+ km)
Ceiling: ceiling and visibility are OK
Clouds: unknown
Weather: no significant weather observed at this time

METAR text: ZWWW 182230Z 16002MPS CAVOK 18/08 Q1020 NOSIG
Conditions at: ZWWW (URUM-QI/DIWOPU , CN) observed 2230 UTC 18 August 2019
Temperature: 18.0°C (64°F)
Dewpoint: 8.0°C (46°F) [RH = 52%]
Pressure (altimeter): 30.12 inches Hg (1020.0 mb)
Winds: from the SSE (160 degrees) at 5 MPH (4 knots; 2.1 m/s)
Visibility: 6 or more miles (10+ km)
Ceiling: ceiling and visibility are OK
Clouds: unknown
Weather: no significant weather observed at this time

METAR text: ZWWW 182200Z 16002MPS 150V210 CAVOK 18/08 Q1019 NOSIG
Conditions at: ZWWW (URUM-QI/DIWOPU , CN) observed 2200 UTC 18 August 2019
Temperature: 18.0°C (64°F)
Dewpoint: 8.0°C (46°F) [RH = 52%]
Pressure (altimeter): 30.09 inches Hg (1019.0 mb)
Winds: from the SSE (160 degrees) at 5 MPH (4 knots; 2.1 m/s)
Visibility: 6 or more miles (10+ km)
Ceiling: ceiling and visibility are OK
Clouds: unknown
Weather: no significant weather observed at this time

METAR text: ZWWW 182130Z 19002MPS 160V230 CAVOK 18/08 Q1019 NOSIG
Conditions at: ZWWW (URUM-QI/DIWOPU , CN) observed 2130 UTC 18 August 2019
Temperature: 18.0°C (64°F)
Dewpoint: 8.0°C (46°F) [RH = 52%]
Pressure (altimeter): 30.09 inches Hg (1019.0 mb)
Winds: from the S (190 degrees) at 5 MPH (4 knots; 2.1 m/s)
Visibility: 6 or more miles (10+ km)
Ceiling: ceiling and visibility are OK
Clouds: unknown
Weather: no significant weather observed at this time

METAR text: ZWWW 182100Z 17002MPS CAVOK 18/08 Q1019 NOSIG
Conditions at: ZWWW (URUM-QI/DIWOPU , CN) observed 2100 UTC 18 August 2019
Temperature: 18.0°C (64°F)
Dewpoint: 8.0°C (46°F) [RH = 52%]
Pressure (altimeter): 30.09 inches Hg (1019.0 mb)
Winds: from the S (170 degrees) at 5 MPH (4 knots; 2.1 m/s)
Visibility: 6 or more miles (10+ km)
Ceiling: ceiling and visibility are OK
Clouds: unknown
Weather: no significant weather observed at this time

METAR text: ZWWW 182030Z 16002MPS CAVOK 19/09 Q1019 NOSIG
Conditions at: ZWWW (URUM-QI/DIWOPU , CN) observed 2030 UTC 18 August 2019
Temperature: 19.0°C (66°F)
Dewpoint: 9.0°C (48°F) [RH = 52%]
Pressure (altimeter): 30.09 inches Hg (1019.0 mb)
Winds: from the SSE (160 degrees) at 5 MPH (4 knots; 2.1 m/s)
Visibility: 6 or more miles (10+ km)
Ceiling: ceiling and visibility are OK
Clouds: unknown
Weather: no significant weather observed at this time

METAR text: ZWWW 182000Z 16002MPS CAVOK 19/08 Q1019 NOSIG
Conditions at: ZWWW (URUM-QI/DIWOPU , CN) observed 2000 UTC 18 August 2019
Temperature: 19.0°C (66°F)
Dewpoint: 8.0°C (46°F) [RH = 49%]
Pressure (altimeter): 30.09 inches Hg (1019.0 mb)
Winds: from the SSE (160 degrees) at 5 MPH (4 knots; 2.1 m/s)
Visibility: 6 or more miles (10+ km)
Ceiling: ceiling and visibility are OK
Clouds: unknown
Weather: no significant weather observed at this time

METAR text: ZWWW 181930Z 14002MPS CAVOK 19/08 Q1019 NOSIG
Conditions at: ZWWW (URUM-QI/DIWOPU , CN) observed 1930 UTC 18 August 2019
Temperature: 19.0°C (66°F)
Dewpoint: 8.0°C (46°F) [RH = 49%]
Pressure (altimeter): 30.09 inches Hg (1019.0 mb)
Winds: from the SE (140 degrees) at 5 MPH (4 knots; 2.1 m/s)
Visibility: 6 or more miles (10+ km)
Ceiling: ceiling and visibility are OK
Clouds: unknown
Weather: no significant weather observed at this time

METAR text: ZWWW 181900Z 15002MPS CAVOK 20/08 Q1019 NOSIG
Conditions at: ZWWW (URUM-QI/DIWOPU , CN) observed 1900 UTC 18 August 2019
Temperature: 20.0°C (68°F)
Dewpoint: 8.0°C (46°F) [RH = 46%]
Pressure (altimeter): 30.09 inches Hg (1019.0 mb)
Winds: from the SSE (150 degrees) at 5 MPH (4 knots; 2.1 m/s)
Visibility: 6 or more miles (10+ km)
Ceiling: ceiling and visibility are OK
Clouds: unknown
Weather: no significant weather observed at this time

METAR text: ZWWW 181830Z 15002MPS CAVOK 20/08 Q1019 NOSIG
Conditions at: ZWWW (URUM-QI/DIWOPU , CN) observed 1830 UTC 18 August 2019
Temperature: 20.0°C (68°F)
Dewpoint: 8.0°C (46°F) [RH = 46%]
Pressure (altimeter): 30.09 inches Hg (1019.0 mb)
Winds: from the SSE (150 degrees) at 5 MPH (4 knots; 2.1 m/s)
Visibility: 6 or more miles (10+ km)
Ceiling: ceiling and visibility are OK
Clouds: unknown
Weather: no significant weather observed at this time

METAR text: ZWWW 181800Z 19003MPS 170V230 CAVOK 21/07 Q1019 NOSIG
Conditions at: ZWWW (URUM-QI/DIWOPU , CN) observed 1800 UTC 18 August 2019
Temperature: 21.0°C (70°F)
Dewpoint: 7.0°C (45°F) [RH = 40%]
Pressure (altimeter): 30.09 inches Hg (1019.0 mb)
Winds: from the S (190 degrees) at 7 MPH (6 knots; 3.1 m/s)
Visibility: 6 or more miles (10+ km)
Ceiling: ceiling and visibility are OK
Clouds: unknown
Weather: no significant weather observed at this time

METAR text: ZWWW 181730Z 18003MPS CAVOK 21/08 Q1019 NOSIG
Conditions at: ZWWW (URUM-QI/DIWOPU , CN) observed 1730 UTC 18 August 2019
Temperature: 21.0°C (70°F)
Dewpoint: 8.0°C (46°F) [RH = 43%]
Pressure (altimeter): 30.09 inches Hg (1019.0 mb)
Winds: from the S (180 degrees) at 7 MPH (6 knots; 3.1 m/s)
Visibility: 6 or more miles (10+ km)
Ceiling: ceiling and visibility are OK
Clouds: unknown
Weather: no significant weather observed at this time

METAR text: ZWWW 181700Z 18003MPS CAVOK 21/09 Q1019 NOSIG
Conditions at: ZWWW (URUM-QI/DIWOPU , CN) observed 1700 UTC 18 August 2019
Temperature: 21.0°C (70°F)
Dewpoint: 9.0°C (48°F) [RH = 46%]
Pressure (altimeter): 30.09 inches Hg (1019.0 mb)
Winds: from the S (180 degrees) at 7 MPH (6 knots; 3.1 m/s)
Visibility: 6 or more miles (10+ km)
Ceiling: ceiling and visibility are OK
Clouds: unknown
Weather: no significant weather observed at this time

METAR text: ZWWW 181630Z 18003MPS 160V220 CAVOK 21/10 Q1019 NOSIG
Conditions at: ZWWW (URUM-QI/DIWOPU , CN) observed 1630 UTC 18 August 2019
Temperature: 21.0°C (70°F)
Dewpoint: 10.0°C (50°F) [RH = 49%]
Pressure (altimeter): 30.09 inches Hg (1019.0 mb)
Winds: from the S (180 degrees) at 7 MPH (6 knots; 3.1 m/s)
Visibility: 6 or more miles (10+ km)
Ceiling: ceiling and visibility are OK
Clouds: unknown
Weather: no significant weather observed at this time

METAR text: ZWWW 181600Z 25002MPS CAVOK 21/10 Q1019 NOSIG
Conditions at: ZWWW (URUM-QI/DIWOPU , CN) observed 1600 UTC 18 August 2019
Temperature: 21.0°C (70°F)
Dewpoint: 10.0°C (50°F) [RH = 49%]
Pressure (altimeter): 30.09 inches Hg (1019.0 mb)
Winds: from the WSW (250 degrees) at 5 MPH (4 knots; 2.1 m/s)
Visibility: 6 or more miles (10+ km)
Ceiling: ceiling and visibility are OK
Clouds: unknown
Weather: no significant weather observed at this time

METAR text: ZWWW 181530Z VRB01MPS CAVOK 21/10 Q1018 NOSIG
Conditions at: ZWWW (URUM-QI/DIWOPU , CN) observed 1530 UTC 18 August 2019
Temperature: 21.0°C (70°F)
Dewpoint: 10.0°C (50°F) [RH = 49%]
Pressure (altimeter): 30.06 inches Hg (1018.0 mb)
Winds: variable direction winds at 2 MPH (2 knots; 1.0 m/s)
Visibility: 6 or more miles (10+ km)
Ceiling: ceiling and visibility are OK
Clouds: unknown
Weather: no significant weather observed at this time

METAR text: ZWWW 181500Z VRB01MPS CAVOK 21/11 Q1018 NOSIG
Conditions at: ZWWW (URUM-QI/DIWOPU , CN) observed 1500 UTC 18 August 2019
Temperature: 21.0°C (70°F)
Dewpoint: 11.0°C (52°F) [RH = 53%]
Pressure (altimeter): 30.06 inches Hg (1018.0 mb)
Winds: variable direction winds at 2 MPH (2 knots; 1.0 m/s)
Visibility: 6 or more miles (10+ km)
Ceiling: ceiling and visibility are OK
Clouds: unknown
Weather: no significant weather observed at this time

METAR text: ZWWW 181430Z 33003MPS CAVOK 22/12 Q1018 NOSIG
Conditions at: ZWWW (URUM-QI/DIWOPU , CN) observed 1430 UTC 18 August 2019
Temperature: 22.0°C (72°F)
Dewpoint: 12.0°C (54°F) [RH = 53%]
Pressure (altimeter): 30.06 inches Hg (1018.0 mb)
Winds: from the NNW (330 degrees) at 7 MPH (6 knots; 3.1 m/s)
Visibility: 6 or more miles (10+ km)
Ceiling: ceiling and visibility are OK
Clouds: unknown
Weather: no significant weather observed at this time

METAR text: ZWWW 181400Z 33003MPS CAVOK 22/11 Q1018 NOSIG
Conditions at: ZWWW (URUM-QI/DIWOPU , CN) observed 1400 UTC 18 August 2019
Temperature: 22.0°C (72°F)
Dewpoint: 11.0°C (52°F) [RH = 50%]
Pressure (altimeter): 30.06 inches Hg (1018.0 mb)
Winds: from the NNW (330 degrees) at 7 MPH (6 knots; 3.1 m/s)
Visibility: 6 or more miles (10+ km)
Ceiling: ceiling and visibility are OK
Clouds: unknown
Weather: no significant weather observed at this time

METAR text: ZWWW 181330Z 29002MPS 260V350 CAVOK 23/11 Q1017 NOSIG
Conditions at: ZWWW (URUM-QI/DIWOPU , CN) observed 1330 UTC 18 August 2019
Temperature: 23.0°C (73°F)
Dewpoint: 11.0°C (52°F) [RH = 47%]
Pressure (altimeter): 30.03 inches Hg (1017.0 mb)
Winds: from the WNW (290 degrees) at 5 MPH (4 knots; 2.1 m/s)
Visibility: 6 or more miles (10+ km)
Ceiling: ceiling and visibility are OK
Clouds: unknown
Weather: no significant weather observed at this time

METAR text: ZWWW 181300Z VRB01MPS CAVOK 22/11 Q1016 NOSIG
Conditions at: ZWWW (URUM-QI/DIWOPU , CN) observed 1300 UTC 18 August 2019
Temperature: 22.0°C (72°F)
Dewpoint: 11.0°C (52°F) [RH = 50%]
Pressure (altimeter): 30.00 inches Hg (1016.0 mb)
Winds: variable direction winds at 2 MPH (2 knots; 1.0 m/s)
Visibility: 6 or more miles (10+ km)
Ceiling: ceiling and visibility are OK
Clouds: unknown
Weather: no significant weather observed at this time

METAR text: ZWWW 181230Z VRB01MPS CAVOK 23/11 Q1016 NOSIG
Conditions at: ZWWW (URUM-QI/DIWOPU , CN) observed 1230 UTC 18 August 2019
Temperature: 23.0°C (73°F)
Dewpoint: 11.0°C (52°F) [RH = 47%]
Pressure (altimeter): 30.00 inches Hg (1016.0 mb)
Winds: variable direction winds at 2 MPH (2 knots; 1.0 m/s)
Visibility: 6 or more miles (10+ km)
Ceiling: ceiling and visibility are OK
Clouds: unknown
Weather: no significant weather observed at this time

METAR text: ZWWW 181200Z VRB01MPS CAVOK 23/11 Q1015 NOSIG
Conditions at: ZWWW (URUM-QI/DIWOPU , CN) observed 1200 UTC 18 August 2019
Temperature: 23.0°C (73°F)
Dewpoint: 11.0°C (52°F) [RH = 47%]
Pressure (altimeter): 29.97 inches Hg (1015.0 mb)
Winds: variable direction winds at 2 MPH (2 knots; 1.0 m/s)
Visibility: 6 or more miles (10+ km)
Ceiling: ceiling and visibility are OK
Clouds: unknown
Weather: no significant weather observed at this time

METAR text: ZWWW 181130Z VRB01MPS CAVOK 23/11 Q1015 NOSIG
Conditions at: ZWWW (URUM-QI/DIWOPU , CN) observed 1130 UTC 18 August 2019
Temperature: 23.0°C (73°F)
Dewpoint: 11.0°C (52°F) [RH = 47%]
Pressure (altimeter): 29.97 inches Hg (1015.0 mb)
Winds: variable direction winds at 2 MPH (2 knots; 1.0 m/s)
Visibility: 6 or more miles (10+ km)
Ceiling: ceiling and visibility are OK
Clouds: unknown
Weather: no significant weather observed at this time

METAR text: ZWWW 181100Z VRB01MPS CAVOK 23/11 Q1015 NOSIG
Conditions at: ZWWW (URUM-QI/DIWOPU , CN) observed 1100 UTC 18 August 2019
Temperature: 23.0°C (73°F)
Dewpoint: 11.0°C (52°F) [RH = 47%]
Pressure (altimeter): 29.97 inches Hg (1015.0 mb)
Winds: variable direction winds at 2 MPH (2 knots; 1.0 m/s)
Visibility: 6 or more miles (10+ km)
Ceiling: ceiling and visibility are OK
Clouds: unknown
Weather: no significant weather observed at this time

METAR text: ZWWW 181030Z 01002MPS 340V040 9999 -SHRA SCT046 22/12 Q1015 NOSIG
Conditions at: ZWWW (URUM-QI/DIWOPU , CN) observed 1030 UTC 18 August 2019
Temperature: 22.0°C (72°F)
Dewpoint: 12.0°C (54°F) [RH = 53%]
Pressure (altimeter): 29.97 inches Hg (1015.0 mb)
Winds: from the N (10 degrees) at 5 MPH (4 knots; 2.1 m/s)
Visibility: 6 or more miles (10+ km)
Ceiling: at least 12,000 feet AGL
Clouds: scattered clouds at 4600 feet AGL
Weather: -SHRA  (light rain showers)

METAR text: ZWWW 181000Z 01002MPS 330V070 CAVOK 22/12 Q1015 NOSIG
Conditions at: ZWWW (URUM-QI/DIWOPU , CN) observed 1000 UTC 18 August 2019
Temperature: 22.0°C (72°F)
Dewpoint: 12.0°C (54°F) [RH = 53%]
Pressure (altimeter): 29.97 inches Hg (1015.0 mb)
Winds: from the N (10 degrees) at 5 MPH (4 knots; 2.1 m/s)
Visibility: 6 or more miles (10+ km)
Ceiling: ceiling and visibility are OK
Clouds: unknown
Weather: no significant weather observed at this time

METAR text: ZWWW 180930Z 01002MPS 340V040 CAVOK 22/12 Q1014 NOSIG
Conditions at: ZWWW (URUM-QI/DIWOPU , CN) observed 0930 UTC 18 August 2019
Temperature: 22.0°C (72°F)
Dewpoint: 12.0°C (54°F) [RH = 53%]
Pressure (altimeter): 29.94 inches Hg (1014.0 mb)
Winds: from the N (10 degrees) at 5 MPH (4 knots; 2.1 m/s)
Visibility: 6 or more miles (10+ km)
Ceiling: ceiling and visibility are OK
Clouds: unknown
Weather: no significant weather observed at this time

METAR text: ZWWW 180900Z 03003MPS 340V070 CAVOK 22/12 Q1014 NOSIG
Conditions at: ZWWW (URUM-QI/DIWOPU , CN) observed 0900 UTC 18 August 2019
Temperature: 22.0°C (72°F)
Dewpoint: 12.0°C (54°F) [RH = 53%]
Pressure (altimeter): 29.94 inches Hg (1014.0 mb)
Winds: from the NNE (30 degrees) at 7 MPH (6 knots; 3.1 m/s)
Visibility: 6 or more miles (10+ km)
Ceiling: ceiling and visibility are OK
Clouds: unknown
Weather: no significant weather observed at this time

METAR text: ZWWW 180830Z 04003MPS 360V090 CAVOK 22/12 Q1014 NOSIG
Conditions at: ZWWW (URUM-QI/DIWOPU , CN) observed 0830 UTC 18 August 2019
Temperature: 22.0°C (72°F)
Dewpoint: 12.0°C (54°F) [RH = 53%]
Pressure (altimeter): 29.94 inches Hg (1014.0 mb)
Winds: from the NE (40 degrees) at 7 MPH (6 knots; 3.1 m/s)
Visibility: 6 or more miles (10+ km)
Ceiling: ceiling and visibility are OK
Clouds: unknown
Weather: no significant weather observed at this time

METAR text: ZWWW 180800Z 02003MPS 320V060 CAVOK 22/12 Q1014 NOSIG
Conditions at: ZWWW (URUM-QI/DIWOPU , CN) observed 0800 UTC 18 August 2019
Temperature: 22.0°C (72°F)
Dewpoint: 12.0°C (54°F) [RH = 53%]
Pressure (altimeter): 29.94 inches Hg (1014.0 mb)
Winds: from the NNE (20 degrees) at 7 MPH (6 knots; 3.1 m/s)
Visibility: 6 or more miles (10+ km)
Ceiling: ceiling and visibility are OK
Clouds: unknown
Weather: no significant weather observed at this time

METAR text: ZWWW 180730Z 02003MPS 300V070 CAVOK 22/12 Q1014 NOSIG
Conditions at: ZWWW (URUM-QI/DIWOPU , CN) observed 0730 UTC 18 August 2019
Temperature: 22.0°C (72°F)
Dewpoint: 12.0°C (54°F) [RH = 53%]
Pressure (altimeter): 29.94 inches Hg (1014.0 mb)
Winds: from the NNE (20 degrees) at 7 MPH (6 knots; 3.1 m/s)
Visibility: 6 or more miles (10+ km)
Ceiling: ceiling and visibility are OK
Clouds: unknown
Weather: no significant weather observed at this time

METAR text: ZWWW 180700Z VRB03MPS CAVOK 22/12 Q1014 NOSIG
Conditions at: ZWWW (URUM-QI/DIWOPU , CN) observed 0700 UTC 18 August 2019
Temperature: 22.0°C (72°F)
Dewpoint: 12.0°C (54°F) [RH = 53%]
Pressure (altimeter): 29.94 inches Hg (1014.0 mb)
Winds: variable direction winds at 7 MPH (6 knots; 3.1 m/s)
Visibility: 6 or more miles (10+ km)
Ceiling: ceiling and visibility are OK
Clouds: unknown
Weather: no significant weather observed at this time

METAR text: ZWWW 180630Z 35002MPS 270V070 CAVOK 22/12 Q1014 NOSIG
Conditions at: ZWWW (URUM-QI/DIWOPU , CN) observed 0630 UTC 18 August 2019
Temperature: 22.0°C (72°F)
Dewpoint: 12.0°C (54°F) [RH = 53%]
Pressure (altimeter): 29.94 inches Hg (1014.0 mb)
Winds: from the N (350 degrees) at 5 MPH (4 knots; 2.1 m/s)
Visibility: 6 or more miles (10+ km)
Ceiling: ceiling and visibility are OK
Clouds: unknown
Weather: no significant weather observed at this time

METAR text: ZWWW 180600Z 33002MPS 230V040 CAVOK 21/12 Q1014 NOSIG
Conditions at: ZWWW (URUM-QI/DIWOPU , CN) observed 0600 UTC 18 August 2019
Temperature: 21.0°C (70°F)
Dewpoint: 12.0°C (54°F) [RH = 56%]
Pressure (altimeter): 29.94 inches Hg (1014.0 mb)
Winds: from the NNW (330 degrees) at 5 MPH (4 knots; 2.1 m/s)
Visibility: 6 or more miles (10+ km)
Ceiling: ceiling and visibility are OK
Clouds: unknown
Weather: no significant weather observed at this time

METAR text: ZWWW 180530Z 34003MPS 220V030 CAVOK 21/12 Q1015 NOSIG
Conditions at: ZWWW (URUM-QI/DIWOPU , CN) observed 0530 UTC 18 August 2019
Temperature: 21.0°C (70°F)
Dewpoint: 12.0°C (54°F) [RH = 56%]
Pressure (altimeter): 29.97 inches Hg (1015.0 mb)
Winds: from the NNW (340 degrees) at 7 MPH (6 knots; 3.1 m/s)
Visibility: 6 or more miles (10+ km)
Ceiling: ceiling and visibility are OK
Clouds: unknown
Weather: no significant weather observed at this time

METAR text: ZWWW 180500Z 02002MPS 340V060 CAVOK 20/12 Q1015 NOSIG
Conditions at: ZWWW (URUM-QI/DIWOPU , CN) observed 0500 UTC 18 August 2019
Temperature: 20.0°C (68°F)
Dewpoint: 12.0°C (54°F) [RH = 60%]
Pressure (altimeter): 29.97 inches Hg (1015.0 mb)
Winds: from the NNE (20 degrees) at 5 MPH (4 knots; 2.1 m/s)
Visibility: 6 or more miles (10+ km)
Ceiling: ceiling and visibility are OK
Clouds: unknown
Weather: no significant weather observed at this time

METAR text: ZWWW 180430Z 02003MPS 350V060 CAVOK 20/12 Q1015 NOSIG
Conditions at: ZWWW (URUM-QI/DIWOPU , CN) observed 0430 UTC 18 August 2019
Temperature: 20.0°C (68°F)
Dewpoint: 12.0°C (54°F) [RH = 60%]
Pressure (altimeter): 29.97 inches Hg (1015.0 mb)
Winds: from the NNE (20 degrees) at 7 MPH (6 knots; 3.1 m/s)
Visibility: 6 or more miles (10+ km)
Ceiling: ceiling and visibility are OK
Clouds: unknown
Weather: no significant weather observed at this time

METAR text: ZWWW 180400Z 01002MPS 320V060 CAVOK 20/13 Q1015 NOSIG
Conditions at: ZWWW (URUM-QI/DIWOPU , CN) observed 0400 UTC 18 August 2019
Temperature: 20.0°C (68°F)
Dewpoint: 13.0°C (55°F) [RH = 64%]
Pressure (altimeter): 29.97 inches Hg (1015.0 mb)
Winds: from the N (10 degrees) at 5 MPH (4 knots; 2.1 m/s)
Visibility: 6 or more miles (10+ km)
Ceiling: ceiling and visibility are OK
Clouds: unknown
Weather: no significant weather observed at this time

METAR text: ZWWW 180330Z 03002MPS 360V090 CAVOK 19/12 Q1015 NOSIG
Conditions at: ZWWW (URUM-QI/DIWOPU , CN) observed 0330 UTC 18 August 2019
Temperature: 19.0°C (66°F)
Dewpoint: 12.0°C (54°F) [RH = 64%]
Pressure (altimeter): 29.97 inches Hg (1015.0 mb)
Winds: from the NNE (30 degrees) at 5 MPH (4 knots; 2.1 m/s)
Visibility: 6 or more miles (10+ km)
Ceiling: ceiling and visibility are OK
Clouds: unknown
Weather: no significant weather observed at this time

METAR text: ZWWW 180300Z 04002MPS 350V110 CAVOK 19/13 Q1016 NOSIG
Conditions at: ZWWW (URUM-QI/DIWOPU , CN) observed 0300 UTC 18 August 2019
Temperature: 19.0°C (66°F)
Dewpoint: 13.0°C (55°F) [RH = 68%]
Pressure (altimeter): 30.00 inches Hg (1016.0 mb)
Winds: from the NE (40 degrees) at 5 MPH (4 knots; 2.1 m/s)
Visibility: 6 or more miles (10+ km)
Ceiling: ceiling and visibility are OK
Clouds: unknown
Weather: no significant weather observed at this time

METAR text: ZWWW 180230Z 04003MPS 020V080 CAVOK 19/13 Q1015 NOSIG
Conditions at: ZWWW (URUM-QI/DIWOPU , CN) observed 0230 UTC 18 August 2019
Temperature: 19.0°C (66°F)
Dewpoint: 13.0°C (55°F) [RH = 68%]
Pressure (altimeter): 29.97 inches Hg (1015.0 mb)
Winds: from the NE (40 degrees) at 7 MPH (6 knots; 3.1 m/s)
Visibility: 6 or more miles (10+ km)
Ceiling: ceiling and visibility are OK
Clouds: unknown
Weather: no significant weather observed at this time

METAR text: ZWWW 180200Z 06003MPS 030V120 9999 FEW040 18/13 Q1015 NOSIG
Conditions at: ZWWW (URUM-QI/DIWOPU , CN) observed 0200 UTC 18 August 2019
Temperature: 18.0°C (64°F)
Dewpoint: 13.0°C (55°F) [RH = 73%]
Pressure (altimeter): 29.97 inches Hg (1015.0 mb)
Winds: from the ENE (60 degrees) at 7 MPH (6 knots; 3.1 m/s)
Visibility: 6 or more miles (10+ km)
Ceiling: at least 12,000 feet AGL
Clouds: few clouds at 4000 feet AGL
Weather: no significant weather observed at this time

METAR text: ZWWW 180130Z 04003MPS 9999 FEW040 17/13 Q1015 NOSIG
Conditions at: ZWWW (URUM-QI/DIWOPU , CN) observed 0130 UTC 18 August 2019
Temperature: 17.0°C (63°F)
Dewpoint: 13.0°C (55°F) [RH = 77%]
Pressure (altimeter): 29.97 inches Hg (1015.0 mb)
Winds: from the NE (40 degrees) at 7 MPH (6 knots; 3.1 m/s)
Visibility: 6 or more miles (10+ km)
Ceiling: at least 12,000 feet AGL
Clouds: few clouds at 4000 feet AGL
Weather: no significant weather observed at this time

METAR text: ZWWW 180100Z 05002MPS 9999 FEW030 BKN046 17/13 Q1015 NOSIG
Conditions at: ZWWW (URUM-QI/DIWOPU , CN) observed 0100 UTC 18 August 2019
Temperature: 17.0°C (63°F)
Dewpoint: 13.0°C (55°F) [RH = 77%]
Pressure (altimeter): 29.97 inches Hg (1015.0 mb)
Winds: from the NE (50 degrees) at 5 MPH (4 knots; 2.1 m/s)
Visibility: 6 or more miles (10+ km)
Ceiling: 4600 feet AGL
Clouds: few clouds at 3000 feet AGL
broken clouds at 4600 feet AGL
Weather: no significant weather observed at this time

METAR text: ZWWW 180030Z 06002MPS 9999 FEW016 BKN040 16/14 Q1016 NOSIG
Conditions at: ZWWW (URUM-QI/DIWOPU , CN) observed 0030 UTC 18 August 2019
Temperature: 16.0°C (61°F)
Dewpoint: 14.0°C (57°F) [RH = 88%]
Pressure (altimeter): 30.00 inches Hg (1016.0 mb)
Winds: from the ENE (60 degrees) at 5 MPH (4 knots; 2.1 m/s)
Visibility: 6 or more miles (10+ km)
Ceiling: 4000 feet AGL
Clouds: few clouds at 1600 feet AGL
broken clouds at 4000 feet AGL
Weather: no significant weather observed at this time

METAR text: ZWWW 180000Z 06002MPS 9999 SCT014 BKN040 16/14 Q1015 NOSIG
Conditions at: ZWWW (URUM-QI/DIWOPU , CN) observed 0000 UTC 18 August 2019
Temperature: 16.0°C (61°F)
Dewpoint: 14.0°C (57°F) [RH = 88%]
Pressure (altimeter): 29.97 inches Hg (1015.0 mb)
Winds: from the ENE (60 degrees) at 5 MPH (4 knots; 2.1 m/s)
Visibility: 6 or more miles (10+ km)
Ceiling: 4000 feet AGL
Clouds: scattered clouds at 1400 feet AGL
broken clouds at 4000 feet AGL
Weather: no significant weather observed at this time

METAR text: ZWWW 172330Z 06002MPS 9999 -SHRA FEW014 BKN033 16/14 Q1015 NOSIG
Conditions at: ZWWW (URUM-QI/DIWOPU , CN) observed 2330 UTC 17 August 2019
Temperature: 16.0°C (61°F)
Dewpoint: 14.0°C (57°F) [RH = 88%]
Pressure (altimeter): 29.97 inches Hg (1015.0 mb)
Winds: from the ENE (60 degrees) at 5 MPH (4 knots; 2.1 m/s)
Visibility: 6 or more miles (10+ km)
Ceiling: 3300 feet AGL
Clouds: few clouds at 1400 feet AGL
broken clouds at 3300 feet AGL
Weather: -SHRA  (light rain showers)

METAR text: ZWWW 172300Z VRB01MPS 9999 FEW016 BKN033 16/14 Q1015 NOSIG
Conditions at: ZWWW (URUM-QI/DIWOPU , CN) observed 2300 UTC 17 August 2019
Temperature: 16.0°C (61°F)
Dewpoint: 14.0°C (57°F) [RH = 88%]
Pressure (altimeter): 29.97 inches Hg (1015.0 mb)
Winds: variable direction winds at 2 MPH (2 knots; 1.0 m/s)
Visibility: 6 or more miles (10+ km)
Ceiling: 3300 feet AGL
Clouds: few clouds at 1600 feet AGL
broken clouds at 3300 feet AGL
Weather: no significant weather observed at this time

METAR text: ZWWW 172230Z 31002MPS 280V340 9999 -SHRA FEW014 BKN033 16/14 Q1015 NOSIG
Conditions at: ZWWW (URUM-QI/DIWOPU , CN) observed 2230 UTC 17 August 2019
Temperature: 16.0°C (61°F)
Dewpoint: 14.0°C (57°F) [RH = 88%]
Pressure (altimeter): 29.97 inches Hg (1015.0 mb)
Winds: from the NW (310 degrees) at 5 MPH (4 knots; 2.1 m/s)
Visibility: 6 or more miles (10+ km)
Ceiling: 3300 feet AGL
Clouds: few clouds at 1400 feet AGL
broken clouds at 3300 feet AGL
Weather: -SHRA  (light rain showers)

METAR text: ZWWW 172200Z 33003MPS 290V350 9999 -SHRA SCT011 BKN023 16/14 Q1015 NOSIG
Conditions at: ZWWW (URUM-QI/DIWOPU , CN) observed 2200 UTC 17 August 2019
Temperature: 16.0°C (61°F)
Dewpoint: 14.0°C (57°F) [RH = 88%]
Pressure (altimeter): 29.97 inches Hg (1015.0 mb)
Winds: from the NNW (330 degrees) at 7 MPH (6 knots; 3.1 m/s)
Visibility: 6 or more miles (10+ km)
Ceiling: 2300 feet AGL
Clouds: scattered clouds at 1100 feet AGL
broken clouds at 2300 feet AGL
Weather: -SHRA  (light rain showers)

METAR text: ZWWW 172130Z 33002MPS 9999 -SHRA SCT014 BKN033 17/14 Q1015 NOSIG
Conditions at: ZWWW (URUM-QI/DIWOPU , CN) observed 2130 UTC 17 August 2019
Temperature: 17.0°C (63°F)
Dewpoint: 14.0°C (57°F) [RH = 82%]
Pressure (altimeter): 29.97 inches Hg (1015.0 mb)
Winds: from the NNW (330 degrees) at 5 MPH (4 knots; 2.1 m/s)
Visibility: 6 or more miles (10+ km)
Ceiling: 3300 feet AGL
Clouds: scattered clouds at 1400 feet AGL
broken clouds at 3300 feet AGL
Weather: -SHRA  (light rain showers)

METAR text: ZWWW 172100Z 30003MPS 280V340 9999 -SHRA FEW016 BKN033 17/14 Q1015 NOSIG
Conditions at: ZWWW (URUM-QI/DIWOPU , CN) observed 2100 UTC 17 August 2019
Temperature: 17.0°C (63°F)
Dewpoint: 14.0°C (57°F) [RH = 82%]
Pressure (altimeter): 29.97 inches Hg (1015.0 mb)
Winds: from the WNW (300 degrees) at 7 MPH (6 knots; 3.1 m/s)
Visibility: 6 or more miles (10+ km)
Ceiling: 3300 feet AGL
Clouds: few clouds at 1600 feet AGL
broken clouds at 3300 feet AGL
Weather: -SHRA  (light rain showers)

METAR text: ZWWW 172030Z 33004MPS 9999 BKN033 17/13 Q1015 NOSIG
Conditions at: ZWWW (URUM-QI/DIWOPU , CN) observed 2030 UTC 17 August 2019
Temperature: 17.0°C (63°F)
Dewpoint: 13.0°C (55°F) [RH = 77%]
Pressure (altimeter): 29.97 inches Hg (1015.0 mb)
Winds: from the NNW (330 degrees) at 9 MPH (8 knots; 4.1 m/s)
Visibility: 6 or more miles (10+ km)
Ceiling: 3300 feet AGL
Clouds: broken clouds at 3300 feet AGL
Weather: no significant weather observed at this time

METAR text: ZWWW 172000Z 32004MPS 290V350 9999 -SHRA BKN046 17/13 Q1014 NOSIG
Conditions at: ZWWW (URUM-QI/DIWOPU , CN) observed 2000 UTC 17 August 2019
Temperature: 17.0°C (63°F)
Dewpoint: 13.0°C (55°F) [RH = 77%]
Pressure (altimeter): 29.94 inches Hg (1014.0 mb)
Winds: from the NW (320 degrees) at 9 MPH (8 knots; 4.1 m/s)
Visibility: 6 or more miles (10+ km)
Ceiling: 4600 feet AGL
Clouds: broken clouds at 4600 feet AGL
Weather: -SHRA  (light rain showers)

METAR text: ZWWW 171930Z 31004MPS 280V340 9999 -SHRA BKN046 18/13 Q1014 NOSIG
Conditions at: ZWWW (URUM-QI/DIWOPU , CN) observed 1930 UTC 17 August 2019
Temperature: 18.0°C (64°F)
Dewpoint: 13.0°C (55°F) [RH = 73%]
Pressure (altimeter): 29.94 inches Hg (1014.0 mb)
Winds: from the NW (310 degrees) at 9 MPH (8 knots; 4.1 m/s)
Visibility: 6 or more miles (10+ km)
Ceiling: 4600 feet AGL
Clouds: broken clouds at 4600 feet AGL
Weather: -SHRA  (light rain showers)

METAR text: ZWWW 171900Z 31005MPS 9999 SCT046 18/13 Q1014 NOSIG
Conditions at: ZWWW (URUM-QI/DIWOPU , CN) observed 1900 UTC 17 August 2019
Temperature: 18.0°C (64°F)
Dewpoint: 13.0°C (55°F) [RH = 73%]
Pressure (altimeter): 29.94 inches Hg (1014.0 mb)
Winds: from the NW (310 degrees) at 12 MPH (10 knots; 5.1 m/s)
Visibility: 6 or more miles (10+ km)
Ceiling: at least 12,000 feet AGL
Clouds: scattered clouds at 4600 feet AGL
Weather: no significant weather observed at this time

Forecast for: ZWWW (URUM-QI/DIWOPU , CN)
Text: TAF ZWWW 190307Z 1906/2006 36004MPS CAVOK TX26/1909Z TN19/1923Z
Forecast period: 0600 to 1300 UTC 19 August 2019
Forecast type: FROM: standard forecast or significant change
Winds: from the N (360 degrees) at 9 MPH (8 knots; 4.1 m/s)
Visibility: 6 or more miles 10+ km)
Ceiling: unknown
Clouds: missing
Weather: no significant weather forecast for this period
Text: BECMG 1913/1914 18004MPS
Forecast period: 1300 UTC 19 August 2019 to 0200 UTC 20 August 2019
Forecast type: BECOMING: Conditions expected to become as follows by 1400 UTC 19 August 2019
Winds: from the S (180 degrees) at 9 MPH (8 knots; 4.1 m/s)
Visibility: 6 or more miles 10+ km)
Ceiling: unknown
Clouds: missing
Weather: no significant weather forecast for this period
Text: BECMG 2002/2003 36004MPS
Forecast period: 0200 to 0600 UTC 20 August 2019
Forecast type: BECOMING: Conditions expected to become as follows by 0300 UTC 20 August 2019
Winds: from the N (360 degrees) at 9 MPH (8 knots; 4.1 m/s)
Visibility: 6 or more miles 10+ km)
Ceiling: unknown
Clouds: missing
Weather: no significant weather forecast for this period